createdAt,value
2022-09-04T00:00:03.683Z,100688.88
2022-09-04T00:02:55.712Z,100651.47
2022-09-04T00:05:28.803Z,100686.41
2022-09-04T00:08:20.660Z,100689.94
2022-09-04T00:11:04.313Z,100694.59
2022-09-04T00:13:44.179Z,100699.31
2022-09-04T00:16:22.993Z,100680.50
2022-09-04T00:18:57.538Z,100689.41
2022-09-04T00:21:39.828Z,100696.44
2022-09-04T00:24:15.553Z,100699.94
2022-09-04T00:27:11.602Z,100709.56
2022-09-04T00:30:02.337Z,100715.72
2022-09-04T00:32:38.509Z,100716.59
2022-09-04T00:35:15.575Z,100715.31
2022-09-04T00:38:02.583Z,100685.03
2022-09-04T00:40:37.377Z,100661.25
2022-09-04T00:43:24.884Z,100723.91
2022-09-04T00:46:10.126Z,100721.25
2022-09-04T00:48:56.594Z,100716.47
2022-09-04T00:51:51.898Z,100698.31
2022-09-04T00:54:26.729Z,100682.72
2022-09-04T00:57:21.343Z,100709.59
2022-09-04T01:00:16.694Z,100723.72
2022-09-04T01:03:16.003Z,100732.03
2022-09-04T01:06:06.874Z,100730.69
2022-09-04T01:08:56.282Z,100736.22
2022-09-04T01:11:39.990Z,100725.00
2022-09-04T01:14:29.605Z,100742.50
2022-09-04T01:17:12.574Z,100732.34
2022-09-04T01:20:01.569Z,100749.00
2022-09-04T01:23:12.229Z,100752.56
2022-09-04T01:26:04.386Z,100755.72
2022-09-04T01:28:40.482Z,100755.84
2022-09-04T01:31:20.326Z,100756.69
2022-09-04T01:34:27.159Z,100756.78
2022-09-04T01:37:03.593Z,100762.00
2022-09-04T01:39:33.766Z,100752.13
2022-09-04T01:42:12.229Z,100754.22
2022-09-04T01:44:38.572Z,100679.38
2022-09-04T01:47:17.213Z,100768.81
2022-09-04T01:49:50.522Z,100737.47
2022-09-04T01:52:48.880Z,100752.22
2022-09-04T01:55:26.737Z,100742.16
2022-09-04T01:58:07.320Z,100761.78
2022-09-04T02:01:02.552Z,100762.13
2022-09-04T02:03:28.977Z,100785.00
2022-09-04T02:06:41.930Z,100749.44
2022-09-04T02:09:19.070Z,100786.53
2022-09-04T02:11:51.231Z,100795.31
2022-09-04T02:14:47.580Z,100767.38
2022-09-04T02:17:23.962Z,100784.28
2022-09-04T02:20:22.539Z,100776.69
2022-09-04T02:22:59.709Z,100800.84
2022-09-04T02:25:36.603Z,100732.22
2022-09-04T02:28:19.330Z,100799.78
2022-09-04T02:31:05.266Z,100780.97
2022-09-04T02:33:40.443Z,100783.53
2022-09-04T02:36:33.805Z,100810.72
2022-09-04T02:39:35.702Z,100680.50
2022-09-04T02:42:30.781Z,100811.09
2022-09-04T02:45:09.671Z,100806.34
2022-09-04T02:48:05.542Z,100789.31
2022-09-04T02:50:53.263Z,100816.50
2022-09-04T02:53:30.671Z,100799.41
2022-09-04T02:56:25.078Z,100806.91
2022-09-04T02:59:11.073Z,100809.16
2022-09-04T03:02:04.501Z,100812.59
2022-09-04T03:04:52.499Z,100792.44
2022-09-04T03:07:29.167Z,100798.78
2022-09-04T03:10:08.955Z,100771.09
2022-09-04T03:12:54.923Z,100763.53
2022-09-04T03:15:38.537Z,100801.09
2022-09-04T03:18:17.090Z,100820.50
2022-09-04T03:20:51.914Z,100734.72
2022-09-04T03:23:34.869Z,100742.09
2022-09-04T03:26:13.358Z,100816.31
2022-09-04T03:29:00.982Z,100799.16
2022-09-04T03:31:32.963Z,100818.19
2022-09-04T03:34:07.625Z,100782.78
2022-09-04T03:36:49.574Z,100779.19
2022-09-04T03:39:43.264Z,100828.59
2022-09-04T03:42:22.453Z,100822.34
2022-09-04T03:45:03.953Z,100815.44
2022-09-04T03:48:07.732Z,100827.94
2022-09-04T03:50:47.926Z,100824.88
2022-09-04T03:53:29.534Z,100803.69
2022-09-04T03:56:12.654Z,100816.63
2022-09-04T03:59:04.677Z,100825.56
2022-09-04T04:01:30.993Z,100826.97
2022-09-04T04:04:34.240Z,100821.06
2022-09-04T04:07:17.691Z,100822.28
2022-09-04T04:10:22.634Z,100775.22
2022-09-04T04:13:01.278Z,100834.63
2022-09-04T04:16:01.156Z,100848.16
2022-09-04T04:18:42.405Z,100808.06
2022-09-04T04:21:35.982Z,100849.13
2022-09-04T04:24:39.511Z,100858.69
2022-09-04T04:27:44.074Z,100866.53
2022-09-04T04:30:14.933Z,100862.75
2022-09-04T04:32:41.232Z,100863.47
2022-09-04T04:35:16.333Z,100868.56
2022-09-04T04:37:53.317Z,100848.84
2022-09-04T04:40:45.215Z,100835.31
2022-09-04T04:43:49.478Z,100835.81
2022-09-04T04:46:26.954Z,100868.16
2022-09-04T04:49:12.377Z,100871.38
2022-09-04T04:52:11.575Z,100882.47
2022-09-04T04:55:15.854Z,100886.13
2022-09-04T04:58:00.581Z,100887.06
2022-09-04T05:00:40.059Z,100891.59
2022-09-04T05:03:19.046Z,100897.16
2022-09-04T05:06:04.205Z,100889.28
2022-09-04T05:08:33.508Z,100892.44
2022-09-04T05:11:30.106Z,100901.78
2022-09-04T05:14:23.997Z,100890.16
2022-09-04T05:17:05.233Z,100902.13
2022-09-04T05:19:40.854Z,100902.13
2022-09-04T05:22:40.749Z,100911.69
2022-09-04T05:25:18.601Z,100907.78
2022-09-04T05:28:16.039Z,100921.50
2022-09-04T05:30:59.200Z,100909.69
2022-09-04T05:33:32.172Z,100895.34
2022-09-04T05:36:08.737Z,100928.69
2022-09-04T05:38:45.911Z,100916.34
2022-09-04T05:41:31.070Z,100938.69
2022-09-04T05:44:11.061Z,100955.31
2022-09-04T05:47:09.886Z,100931.94
2022-09-04T05:50:08.266Z,100924.16
2022-09-04T05:52:37.529Z,100954.97
2022-09-04T05:55:16.153Z,100960.13
2022-09-04T05:57:54.601Z,100962.34
2022-09-04T06:00:21.922Z,100920.81
2022-09-04T06:03:10.268Z,100961.00
2022-09-04T06:05:58.402Z,100973.34
2022-09-04T06:09:16.199Z,100972.47
2022-09-04T06:11:57.146Z,100953.38
2022-09-04T06:14:34.513Z,100970.69
2022-09-04T06:17:28.635Z,100984.91
2022-09-04T06:20:14.259Z,100987.22
2022-09-04T06:23:02.430Z,100967.81
2022-09-04T06:25:41.551Z,100986.28
2022-09-04T06:28:29.818Z,100988.75
2022-09-04T06:31:27.566Z,100992.19
2022-09-04T06:34:12.718Z,100993.25
2022-09-04T06:36:57.870Z,100999.78
2022-09-04T06:39:40.464Z,100999.94
2022-09-04T06:42:31.486Z,101009.03
2022-09-04T06:45:06.148Z,100987.06
2022-09-04T06:47:46.643Z,101003.88
2022-09-04T06:50:42.466Z,101005.25
2022-09-04T06:53:53.248Z,101006.63
2022-09-04T06:56:36.230Z,101003.63
2022-09-04T06:59:08.697Z,101000.75
2022-09-04T07:02:06.850Z,101002.13
2022-09-04T07:05:14.443Z,101003.31
2022-09-04T07:07:56.082Z,101015.78
2022-09-04T07:10:35.276Z,100997.16
2022-09-04T07:13:23.526Z,101019.16
2022-09-04T07:16:32.511Z,101019.44
2022-09-04T07:19:37.190Z,100997.88
2022-09-04T07:22:26.752Z,101023.25
2022-09-04T07:25:18.376Z,101024.75
2022-09-04T07:27:58.003Z,100995.63
2022-09-04T07:30:27.975Z,100997.00
2022-09-04T07:32:54.363Z,101034.88
2022-09-04T07:35:30.665Z,101016.50
2022-09-04T07:38:21.802Z,101041.00
2022-09-04T07:40:53.253Z,101032.03
2022-09-04T07:43:34.898Z,101029.78
2022-09-04T07:46:15.373Z,101038.88
2022-09-04T07:48:50.981Z,101028.22
2022-09-04T07:51:25.883Z,101010.06
2022-09-04T07:54:29.561Z,100991.00
2022-09-04T07:57:11.011Z,101028.44
2022-09-04T08:00:08.195Z,101024.72
2022-09-04T08:02:38.851Z,101037.16
2022-09-04T08:05:14.450Z,101053.31
2022-09-04T08:07:41.153Z,101055.38
2022-09-04T08:10:36.421Z,101059.06
2022-09-04T08:13:31.584Z,101057.94
2022-09-04T08:16:14.756Z,100999.41
2022-09-04T08:18:52.989Z,101065.78
2022-09-04T08:21:28.943Z,101057.47
2022-09-04T08:24:08.287Z,101062.53
2022-09-04T08:26:59.900Z,101036.53
2022-09-04T08:29:50.560Z,101042.31
2022-09-04T08:32:53.234Z,101068.56
2022-09-04T08:35:37.178Z,101069.88
2022-09-04T08:38:12.583Z,101062.66
2022-09-04T08:40:45.104Z,101061.56
2022-09-04T08:43:24.838Z,101066.72
2022-09-04T08:46:15.757Z,101073.91
2022-09-04T08:49:11.517Z,101070.81
2022-09-04T08:52:15.160Z,101076.38
2022-09-04T08:54:59.076Z,101063.88
2022-09-04T08:57:47.202Z,101081.28
2022-09-04T09:00:19.540Z,101079.81
2022-09-04T09:03:25.218Z,101085.09
2022-09-04T09:06:10.383Z,101090.31
2022-09-04T09:09:01.566Z,101079.16
2022-09-04T09:12:04.088Z,101074.69
2022-09-04T09:15:10.164Z,101079.84
2022-09-04T09:17:45.050Z,101073.38
2022-09-04T09:20:49.409Z,101081.91
2022-09-04T09:23:19.419Z,101087.44
2022-09-04T09:25:53.000Z,101015.56
2022-09-04T09:28:40.333Z,101076.31
2022-09-04T09:31:12.806Z,101080.66
2022-09-04T09:34:00.492Z,101077.97
2022-09-04T09:36:52.168Z,101067.38
2022-09-04T09:39:55.820Z,101069.66
2022-09-04T09:42:44.034Z,101061.22
2022-09-04T09:45:29.099Z,101067.34
2022-09-04T09:48:25.854Z,101058.09
2022-09-04T09:51:06.748Z,101062.84
2022-09-04T09:53:45.053Z,101063.09
2022-09-04T09:56:41.422Z,101068.34
2022-09-04T09:59:40.914Z,101072.25
2022-09-04T10:02:13.286Z,101069.53
2022-09-04T10:05:24.463Z,101067.38
2022-09-04T10:07:54.011Z,101079.28
2022-09-04T10:10:46.334Z,101066.34
2022-09-04T10:13:27.713Z,101074.16
2022-09-04T10:16:17.461Z,101078.72
2022-09-04T10:18:52.832Z,101078.81
2022-09-04T10:21:50.973Z,101083.84
2022-09-04T10:24:44.563Z,101088.88
2022-09-04T10:27:27.622Z,101088.72
2022-09-04T10:30:14.566Z,101066.72
2022-09-04T10:33:08.024Z,101088.13
2022-09-04T10:35:53.327Z,101053.81
2022-09-04T10:38:59.119Z,101072.69
2022-09-04T10:41:35.198Z,101087.09
2022-09-04T10:44:20.065Z,101087.28
2022-09-04T10:47:06.995Z,101078.13
2022-09-04T10:49:36.731Z,101079.69
2022-09-04T10:52:30.957Z,101071.50
2022-09-04T10:55:19.967Z,101065.53
2022-09-04T10:58:10.526Z,101064.66
2022-09-04T11:00:54.728Z,101052.22
2022-09-04T11:03:43.288Z,101061.22
2022-09-04T11:06:59.218Z,101068.66
2022-09-04T11:09:40.409Z,101047.69
2022-09-04T11:12:25.490Z,101072.28
2022-09-04T11:15:13.645Z,101068.22
2022-09-04T11:18:12.306Z,101063.41
2022-09-04T11:21:14.874Z,101056.19
2022-09-04T11:23:56.330Z,101066.50
2022-09-04T11:27:06.010Z,101069.75
2022-09-04T11:29:55.739Z,101059.69
2022-09-04T11:32:37.277Z,101071.06
2022-09-04T11:35:26.597Z,101083.72
2022-09-04T11:38:01.226Z,101058.28
2022-09-04T11:40:42.702Z,101079.38
2022-09-04T11:43:26.208Z,101060.53
2022-09-04T11:46:32.070Z,101069.19
2022-09-04T11:49:16.629Z,101077.28
2022-09-04T11:52:04.109Z,101076.91
2022-09-04T11:54:51.628Z,101035.53
2022-09-04T11:57:40.425Z,101028.72
2022-09-04T12:00:17.701Z,101078.66
2022-09-04T12:03:00.805Z,101068.34
2022-09-04T12:05:50.679Z,101066.66
2022-09-04T12:08:37.965Z,101080.28
2022-09-04T12:11:40.762Z,101071.22
2022-09-04T12:14:16.290Z,101086.31
2022-09-04T12:17:17.363Z,101070.38
2022-09-04T12:20:07.963Z,101075.91
2022-09-04T12:22:50.145Z,101077.91
2022-09-04T12:25:34.979Z,101087.31
2022-09-04T12:28:19.512Z,101083.31
2022-09-04T12:31:09.185Z,101082.03
2022-09-04T12:34:03.547Z,101084.47
2022-09-04T12:36:45.397Z,101078.22
2022-09-04T12:39:41.311Z,101080.75
2022-09-04T12:42:18.038Z,101082.03
2022-09-04T12:45:07.091Z,101067.13
2022-09-04T12:47:41.516Z,101077.63
2022-09-04T12:50:28.219Z,101079.91
2022-09-04T12:53:28.897Z,101078.75
2022-09-04T12:56:10.086Z,101075.84
2022-09-04T12:58:59.221Z,101071.44
2022-09-04T13:01:51.411Z,101070.88
2022-09-04T13:04:27.657Z,101080.50
2022-09-04T13:07:25.366Z,101045.75
2022-09-04T13:10:03.150Z,101079.53
2022-09-04T13:12:49.059Z,101081.16
2022-09-04T13:15:26.284Z,101077.50
2022-09-04T13:18:08.576Z,101091.41
2022-09-04T13:21:31.462Z,101068.50
2022-09-04T13:24:19.587Z,101095.97
2022-09-04T13:27:00.539Z,101100.66
2022-09-04T13:29:44.780Z,101088.69
2022-09-04T13:32:28.040Z,101092.25
2022-09-04T13:35:17.311Z,101090.97
2022-09-04T13:38:11.514Z,101092.84
2022-09-04T13:40:46.011Z,101042.13
2022-09-04T13:43:31.355Z,101061.38
2022-09-04T13:46:02.788Z,101086.72
2022-09-04T13:48:47.287Z,101083.94
2022-09-04T13:51:18.353Z,101084.41
2022-09-04T13:54:03.152Z,101064.75
2022-09-04T13:57:20.977Z,101060.16
2022-09-04T13:59:50.403Z,101081.63
2022-09-04T14:02:24.411Z,101080.09
2022-09-04T14:04:56.002Z,101079.63
2022-09-04T14:07:26.949Z,101063.16
2022-09-04T14:09:58.044Z,101064.25
2022-09-04T14:12:53.828Z,101092.78
2022-09-04T14:15:58.015Z,100986.59
2022-09-04T14:18:34.408Z,101053.88
2022-09-04T14:21:11.073Z,101074.63
2022-09-04T14:24:04.593Z,101053.59
2022-09-04T14:26:50.230Z,101072.13
2022-09-04T14:29:44.376Z,101099.97
2022-09-04T14:32:32.121Z,101092.25
2022-09-04T14:35:12.722Z,101067.72
2022-09-04T14:38:04.551Z,101087.75
2022-09-04T14:40:36.929Z,101078.41
2022-09-04T14:43:19.442Z,101086.75
2022-09-04T14:46:02.508Z,101055.44
2022-09-04T14:48:33.575Z,101051.66
2022-09-04T14:51:14.484Z,101071.41
2022-09-04T14:53:48.244Z,101065.25
2022-09-04T14:56:22.039Z,101085.03
2022-09-04T14:59:00.283Z,101085.81
2022-09-04T15:01:31.260Z,101066.50
2022-09-04T15:04:22.866Z,101079.47
2022-09-04T15:07:12.729Z,101073.63
2022-09-04T15:09:43.725Z,101069.06
2022-09-04T15:12:27.422Z,101068.59
2022-09-04T15:15:10.324Z,101055.28
2022-09-04T15:17:49.583Z,101083.81
2022-09-04T15:20:28.225Z,101056.50
2022-09-04T15:22:59.305Z,101075.59
2022-09-04T15:25:47.988Z,101073.97
2022-09-04T15:28:27.493Z,101066.50
2022-09-04T15:31:16.024Z,101077.63
2022-09-04T15:33:45.700Z,101075.16
2022-09-04T15:36:18.267Z,101061.31
2022-09-04T15:38:52.244Z,101049.09
2022-09-04T15:41:34.475Z,101044.22
2022-09-04T15:44:08.446Z,101069.22
2022-09-04T15:47:05.484Z,101074.63
2022-09-04T15:49:54.477Z,101070.25
2022-09-04T15:52:58.512Z,101069.25
2022-09-04T15:55:33.738Z,101075.41
2022-09-04T15:58:08.561Z,101076.69
2022-09-04T16:00:38.498Z,101053.13
2022-09-04T16:03:25.995Z,101050.34
2022-09-04T16:05:59.040Z,101075.94
2022-09-04T16:08:41.127Z,101035.22
2022-09-04T16:11:32.137Z,101073.94
2022-09-04T16:14:20.206Z,101082.44
2022-09-04T16:16:55.248Z,101039.97
2022-09-04T16:19:27.647Z,101068.75
2022-09-04T16:22:23.303Z,101052.41
2022-09-04T16:24:56.440Z,101063.72
2022-09-04T16:27:26.374Z,101071.66
2022-09-04T16:29:58.381Z,101063.56
2022-09-04T16:32:28.734Z,101073.94
2022-09-04T16:35:00.329Z,101079.28
2022-09-04T16:37:42.401Z,101067.88
2022-09-04T16:40:32.930Z,101028.63
2022-09-04T16:43:15.292Z,101069.19
2022-09-04T16:45:44.366Z,101071.22
2022-09-04T16:48:34.057Z,101073.97
2022-09-04T16:51:09.834Z,101001.81
2022-09-04T16:54:08.730Z,101053.97
2022-09-04T16:56:50.003Z,101055.28
2022-09-04T17:00:03.654Z,101060.16
2022-09-04T17:02:50.626Z,101047.28
2022-09-04T17:05:28.744Z,101053.81
2022-09-04T17:08:04.494Z,101061.78
2022-09-04T17:10:49.639Z,101039.91
2022-09-04T17:13:37.894Z,101058.69
2022-09-04T17:16:19.427Z,101043.31
2022-09-04T17:18:48.981Z,101008.56
2022-09-04T17:23:59.429Z,101056.88
2022-09-04T17:29:08.972Z,101021.25
2022-09-04T17:29:11.935Z,101034.16
2022-09-04T17:30:33.188Z,101033.91
2022-09-04T17:39:47.770Z,101016.03
2022-09-04T17:40:49.260Z,101063.72
2022-09-04T17:41:31.065Z,101059.91
2022-09-04T17:42:19.898Z,101002.38
2022-09-04T17:45:28.530Z,101055.78
2022-09-04T17:48:24.106Z,101039.56
2022-09-04T17:50:58.191Z,101063.72
2022-09-04T17:53:34.024Z,101013.56
2022-09-04T17:56:25.970Z,101073.66
2022-09-04T17:59:01.779Z,101063.25
2022-09-04T18:01:46.240Z,101058.00
2022-09-04T18:04:22.442Z,101072.47
2022-09-04T18:07:27.424Z,101057.75
2022-09-04T18:10:34.195Z,101084.31
2022-09-04T18:13:37.877Z,101072.63
2022-09-04T18:16:30.885Z,101076.56
2022-09-04T18:19:15.479Z,101087.72
2022-09-04T18:21:51.389Z,101082.09
2022-09-04T18:24:51.185Z,101093.53
2022-09-04T18:27:32.160Z,101103.28
2022-09-04T18:37:05.457Z,101074.97
2022-09-04T18:37:11.621Z,101103.34
2022-09-04T18:37:20.117Z,101097.13
2022-09-04T18:39:12.063Z,101109.84
2022-09-04T18:45:57.831Z,101120.34
2022-09-04T18:50:34.465Z,101098.03
2022-09-04T18:50:50.391Z,101123.09
2022-09-04T18:51:14.628Z,101134.53
2022-09-04T18:53:50.437Z,101114.66
2022-09-04T18:56:22.914Z,101134.81
2022-09-04T18:59:02.085Z,101050.25
2022-09-04T19:01:40.400Z,101121.31
2022-09-04T19:04:19.333Z,101139.97
2022-09-04T19:07:07.141Z,101124.22
2022-09-04T19:10:05.746Z,101147.44
2022-09-04T19:12:47.915Z,101076.03
2022-09-04T19:15:59.582Z,101127.41
2022-09-04T19:19:39.823Z,101029.25
2022-09-04T19:23:15.469Z,101053.56
2022-09-04T19:29:30.594Z,101146.91
2022-09-04T19:31:59.755Z,101129.72
2022-09-04T19:34:40.013Z,101039.72
2022-09-04T19:37:20.456Z,101143.16
2022-09-04T19:43:57.115Z,101138.59
2022-09-04T19:46:02.152Z,101052.22
2022-09-04T19:46:28.162Z,101148.97
2022-09-04T19:50:57.077Z,101156.72
2022-09-04T19:53:36.174Z,101153.59
2022-09-04T19:55:25.158Z,101041.59
2022-09-04T19:58:19.221Z,101159.69
2022-09-04T20:00:59.411Z,101060.97
2022-09-04T20:03:45.711Z,101160.06
2022-09-04T20:06:26.261Z,101166.47
2022-09-04T20:09:01.462Z,101144.16
2022-09-04T20:11:39.810Z,101162.00
2022-09-04T20:14:14.884Z,101173.75
2022-09-04T20:17:24.767Z,101043.50
2022-09-04T20:19:59.440Z,101157.72
2022-09-04T20:22:37.297Z,101173.94
2022-09-04T20:25:06.767Z,101168.28
2022-09-04T20:27:52.280Z,101181.88
2022-09-04T20:30:23.919Z,101166.75
2022-09-04T20:33:13.830Z,101173.03
2022-09-04T20:35:52.342Z,101165.97
2022-09-04T20:38:43.290Z,101177.06
2022-09-04T20:41:32.613Z,101173.69
2022-09-04T20:44:13.771Z,101176.25
2022-09-04T20:52:50.064Z,101178.66
2022-09-04T20:52:50.366Z,101180.25
2022-09-04T20:53:28.378Z,101150.25
2022-09-04T20:58:11.331Z,101171.41
2022-09-04T21:03:06.534Z,101179.13
2022-09-04T21:03:20.863Z,101181.91
2022-09-04T21:06:07.315Z,101179.13
2022-09-04T21:08:46.070Z,101174.41
2022-09-04T21:11:40.980Z,101176.78
2022-09-04T21:14:16.335Z,101074.44
2022-09-04T21:17:34.317Z,101180.63
2022-09-04T21:20:23.079Z,101182.34
2022-09-04T21:23:10.836Z,101184.06
2022-09-04T21:26:09.801Z,101180.63
2022-09-04T21:29:09.111Z,101182.78
2022-09-04T21:32:15.504Z,101182.78
2022-09-04T21:35:14.085Z,101179.13
2022-09-04T21:38:08.802Z,101170.78
2022-09-04T21:40:59.943Z,101158.75
2022-09-04T21:43:35.602Z,101185.97
2022-09-04T21:46:37.115Z,101147.63
2022-09-04T21:49:13.214Z,101177.81
2022-09-04T21:52:31.271Z,101187.00
2022-09-04T21:58:19.907Z,101188.69
2022-09-04T22:02:27.020Z,101186.00
2022-09-04T22:02:49.591Z,101184.38
2022-09-04T22:04:55.262Z,101183.22
2022-09-04T22:12:07.737Z,101176.47
2022-09-04T22:13:39.582Z,101189.63
2022-09-04T22:13:42.340Z,101200.81
2022-09-04T22:16:41.927Z,101194.16
2022-09-04T22:19:27.543Z,101199.50
2022-09-04T22:22:28.462Z,101201.44
2022-09-04T22:25:10.979Z,101197.34
2022-09-04T22:28:08.904Z,101198.44
2022-09-04T22:30:42.142Z,101166.25
2022-09-04T22:33:14.572Z,101185.41
2022-09-04T22:35:53.142Z,101186.66
2022-09-04T22:38:51.682Z,101194.09
2022-09-04T22:41:42.089Z,101190.88
2022-09-04T22:44:34.478Z,101200.81
2022-09-04T22:47:27.780Z,101196.84
2022-09-04T22:50:18.599Z,101203.91
2022-09-04T22:53:15.436Z,101200.13
2022-09-04T22:56:23.573Z,101206.78
2022-09-04T22:58:51.175Z,101205.94
2022-09-04T23:02:00.139Z,101206.00
2022-09-04T23:04:45.418Z,101189.25
2022-09-04T23:12:49.321Z,101209.63
2022-09-04T23:13:48.350Z,101208.16
2022-09-04T23:13:49.354Z,101211.38
2022-09-04T23:16:41.781Z,101210.94
2022-09-04T23:22:36.822Z,101212.53
2022-09-04T23:26:45.676Z,101210.63
2022-09-04T23:26:48.447Z,101213.69
2022-09-04T23:29:20.686Z,101211.38
2022-09-04T23:32:17.944Z,101165.22
2022-09-04T23:35:35.109Z,101183.34
2022-09-04T23:38:30.946Z,101196.31
2022-09-04T23:41:12.236Z,101206.78
2022-09-04T23:44:16.372Z,101209.81
2022-09-04T23:47:48.391Z,101188.16
2022-09-04T23:50:31.114Z,101198.84
2022-09-04T23:53:12.814Z,101204.28
2022-09-04T23:55:54.284Z,101206.00
2022-09-04T23:58:58.257Z,101203.22
